sensor_id;sensor_type;location;lat;lon;timestamp;P1;durP1;ratioP1;P2;durP2;ratioP2
21769;SDS011;11046;49.558;8.674;2023-07-28T00:01:46;7.18;;;3.95;;
21769;SDS011;11046;49.558;8.674;2023-07-28T00:04:46;6.35;;;4.13;;
21769;SDS011;11046;49.558;8.674;2023-07-28T00:07:47;5.45;;;3.75;;
21769;SDS011;11046;49.558;8.674;2023-07-28T00:10:48;8.13;;;3.92;;
21769;SDS011;11046;49.558;8.674;2023-07-28T00:13:48;8.35;;;3.60;;
21769;SDS011;11046;49.558;8.674;2023-07-28T00:16:49;10.13;;;4.40;;
21769;SDS011;11046;49.558;8.674;2023-07-28T00:19:49;6.60;;;3.40;;
21769;SDS011;11046;49.558;8.674;2023-07-28T00:22:50;6.60;;;3.60;;
21769;SDS011;11046;49.558;8.674;2023-07-28T00:25:51;6.03;;;3.50;;
21769;SDS011;11046;49.558;8.674;2023-07-28T00:28:51;6.35;;;3.05;;
21769;SDS011;11046;49.558;8.674;2023-07-28T00:31:52;7.57;;;3.83;;
21769;SDS011;11046;49.558;8.674;2023-07-28T00:34:53;10.48;;;3.38;;
21769;SDS011;11046;49.558;8.674;2023-07-28T00:37:53;6.00;;;3.80;;
21769;SDS011;11046;49.558;8.674;2023-07-28T00:40:54;6.55;;;3.53;;
21769;SDS011;11046;49.558;8.674;2023-07-28T00:43:54;7.50;;;3.40;;
21769;SDS011;11046;49.558;8.674;2023-07-28T00:46:55;11.13;;;4.82;;
21769;SDS011;11046;49.558;8.674;2023-07-28T00:49:55;8.32;;;4.13;;
21769;SDS011;11046;49.558;8.674;2023-07-28T00:52:56;5.75;;;3.53;;
21769;SDS011;11046;49.558;8.674;2023-07-28T00:55:56;6.07;;;3.65;;
21769;SDS011;11046;49.558;8.674;2023-07-28T00:58:57;5.13;;;3.67;;
21769;SDS011;11046;49.558;8.674;2023-07-28T01:01:58;5.57;;;3.47;;
21769;SDS011;11046;49.558;8.674;2023-07-28T01:04:58;8.18;;;3.92;;
21769;SDS011;11046;49.558;8.674;2023-07-28T01:08:02;5.82;;;3.85;;
21769;SDS011;11046;49.558;8.674;2023-07-28T01:11:08;5.70;;;4.07;;
21769;SDS011;11046;49.558;8.674;2023-07-28T01:14:08;8.23;;;3.58;;
21769;SDS011;11046;49.558;8.674;2023-07-28T01:17:09;6.75;;;3.72;;
21769;SDS011;11046;49.558;8.674;2023-07-28T01:20:10;5.90;;;3.40;;
21769;SDS011;11046;49.558;8.674;2023-07-28T01:23:20;8.00;;;3.53;;
21769;SDS011;11046;49.558;8.674;2023-07-28T01:26:35;5.32;;;3.60;;
21769;SDS011;11046;49.558;8.674;2023-07-28T01:29:36;7.78;;;4.07;;
21769;SDS011;11046;49.558;8.674;2023-07-28T01:32:38;7.65;;;3.92;;
21769;SDS011;11046;49.558;8.674;2023-07-28T01:35:38;12.57;;;3.45;;
21769;SDS011;11046;49.558;8.674;2023-07-28T01:38:39;11.25;;;3.65;;
21769;SDS011;11046;49.558;8.674;2023-07-28T01:41:40;12.02;;;4.32;;
21769;SDS011;11046;49.558;8.674;2023-07-28T01:44:43;9.02;;;3.65;;
21769;SDS011;11046;49.558;8.674;2023-07-28T01:47:44;7.22;;;4.05;;
21769;SDS011;11046;49.558;8.674;2023-07-28T01:50:44;9.80;;;4.35;;
21769;SDS011;11046;49.558;8.674;2023-07-28T01:53:45;23.30;;;5.30;;
21769;SDS011;11046;49.558;8.674;2023-07-28T01:56:46;12.13;;;4.20;;
21769;SDS011;11046;49.558;8.674;2023-07-28T01:59:46;6.82;;;3.90;;
21769;SDS011;11046;49.558;8.674;2023-07-28T02:02:48;12.18;;;4.53;;
21769;SDS011;11046;49.558;8.674;2023-07-28T02:05:48;24.02;;;5.50;;
21769;SDS011;11046;49.558;8.674;2023-07-28T02:08:49;8.85;;;4.55;;
21769;SDS011;11046;49.558;8.674;2023-07-28T02:11:50;7.32;;;4.18;;
21769;SDS011;11046;49.558;8.674;2023-07-28T02:14:51;13.95;;;4.63;;
21769;SDS011;11046;49.558;8.674;2023-07-28T02:17:51;6.28;;;4.03;;
21769;SDS011;11046;49.558;8.674;2023-07-28T02:20:52;11.63;;;4.60;;
21769;SDS011;11046;49.558;8.674;2023-07-28T02:23:53;6.38;;;4.22;;
21769;SDS011;11046;49.558;8.674;2023-07-28T02:26:53;7.95;;;4.60;;
21769;SDS011;11046;49.558;8.674;2023-07-28T02:29:54;9.80;;;4.85;;
21769;SDS011;11046;49.558;8.674;2023-07-28T02:32:55;7.18;;;3.83;;
21769;SDS011;11046;49.558;8.674;2023-07-28T02:35:56;8.60;;;4.28;;
21769;SDS011;11046;49.558;8.674;2023-07-28T02:38:57;6.10;;;3.67;;
21769;SDS011;11046;49.558;8.674;2023-07-28T02:41:57;8.35;;;3.58;;
21769;SDS011;11046;49.558;8.674;2023-07-28T02:44:58;6.95;;;4.00;;
21769;SDS011;11046;49.558;8.674;2023-07-28T02:47:58;7.43;;;3.80;;
21769;SDS011;11046;49.558;8.674;2023-07-28T02:50:59;10.02;;;4.38;;
21769;SDS011;11046;49.558;8.674;2023-07-28T02:54:00;7.20;;;4.15;;
21769;SDS011;11046;49.558;8.674;2023-07-28T02:57:00;9.50;;;4.40;;
21769;SDS011;11046;49.558;8.674;2023-07-28T03:00:01;10.02;;;3.95;;
21769;SDS011;11046;49.558;8.674;2023-07-28T03:03:06;7.22;;;3.58;;
21769;SDS011;11046;49.558;8.674;2023-07-28T03:06:10;7.38;;;3.63;;
21769;SDS011;11046;49.558;8.674;2023-07-28T03:09:11;7.10;;;4.38;;
21769;SDS011;11046;49.558;8.674;2023-07-28T03:12:19;9.05;;;4.30;;
21769;SDS011;11046;49.558;8.674;2023-07-28T03:15:21;6.55;;;4.20;;
21769;SDS011;11046;49.558;8.674;2023-07-28T03:18:22;7.32;;;3.78;;
21769;SDS011;11046;49.558;8.674;2023-07-28T03:21:23;6.28;;;3.80;;
21769;SDS011;11046;49.558;8.674;2023-07-28T03:24:24;7.95;;;3.70;;
21769;SDS011;11046;49.558;8.674;2023-07-28T03:27:24;9.73;;;3.72;;
21769;SDS011;11046;49.558;8.674;2023-07-28T03:30:25;6.35;;;4.00;;
21769;SDS011;11046;49.558;8.674;2023-07-28T03:33:26;6.57;;;3.90;;
21769;SDS011;11046;49.558;8.674;2023-07-28T03:36:26;6.55;;;3.60;;
21769;SDS011;11046;49.558;8.674;2023-07-28T03:39:27;4.68;;;3.17;;
21769;SDS011;11046;49.558;8.674;2023-07-28T03:42:28;5.05;;;3.30;;
21769;SDS011;11046;49.558;8.674;2023-07-28T03:45:28;6.63;;;3.78;;
21769;SDS011;11046;49.558;8.674;2023-07-28T03:48:29;5.38;;;3.42;;
21769;SDS011;11046;49.558;8.674;2023-07-28T03:51:30;5.88;;;3.67;;
21769;SDS011;11046;49.558;8.674;2023-07-28T03:54:30;8.05;;;3.78;;
21769;SDS011;11046;49.558;8.674;2023-07-28T03:57:31;6.07;;;3.60;;
21769;SDS011;11046;49.558;8.674;2023-07-28T04:00:32;6.00;;;3.75;;
21769;SDS011;11046;49.558;8.674;2023-07-28T04:03:33;5.53;;;3.60;;
21769;SDS011;11046;49.558;8.674;2023-07-28T04:06:43;5.25;;;3.50;;
21769;SDS011;11046;49.558;8.674;2023-07-28T04:09:50;7.63;;;3.83;;
21769;SDS011;11046;49.558;8.674;2023-07-28T04:12:51;5.25;;;3.60;;
21769;SDS011;11046;49.558;8.674;2023-07-28T04:15:51;5.13;;;3.50;;
21769;SDS011;11046;49.558;8.674;2023-07-28T04:18:52;11.80;;;3.92;;
21769;SDS011;11046;49.558;8.674;2023-07-28T04:21:52;5.68;;;3.50;;
21769;SDS011;11046;49.558;8.674;2023-07-28T04:24:53;7.00;;;3.90;;
21769;SDS011;11046;49.558;8.674;2023-07-28T04:27:54;5.05;;;3.70;;
21769;SDS011;11046;49.558;8.674;2023-07-28T04:30:56;5.15;;;3.63;;
21769;SDS011;11046;49.558;8.674;2023-07-28T04:34:16;5.40;;;3.72;;
21769;SDS011;11046;49.558;8.674;2023-07-28T04:37:36;7.05;;;3.45;;
21769;SDS011;11046;49.558;8.674;2023-07-28T04:40:36;5.63;;;3.55;;
21769;SDS011;11046;49.558;8.674;2023-07-28T04:43:37;5.72;;;3.53;;
21769;SDS011;11046;49.558;8.674;2023-07-28T04:46:38;5.30;;;3.72;;
21769;SDS011;11046;49.558;8.674;2023-07-28T04:49:43;7.22;;;3.65;;
21769;SDS011;11046;49.558;8.674;2023-07-28T04:52:44;5.38;;;3.03;;
21769;SDS011;11046;49.558;8.674;2023-07-28T04:56:02;6.38;;;3.13;;
21769;SDS011;11046;49.558;8.674;2023-07-28T04:59:03;4.95;;;3.05;;
21769;SDS011;11046;49.558;8.674;2023-07-28T05:02:06;5.95;;;2.88;;
21769;SDS011;11046;49.558;8.674;2023-07-28T05:05:07;3.55;;;2.80;;
21769;SDS011;11046;49.558;8.674;2023-07-28T05:08:07;6.53;;;2.92;;
21769;SDS011;11046;49.558;8.674;2023-07-28T05:11:08;4.05;;;2.50;;
21769;SDS011;11046;49.558;8.674;2023-07-28T05:14:09;3.03;;;2.30;;
21769;SDS011;11046;49.558;8.674;2023-07-28T05:17:09;4.20;;;2.47;;
21769;SDS011;11046;49.558;8.674;2023-07-28T05:20:17;3.75;;;2.70;;
21769;SDS011;11046;49.558;8.674;2023-07-28T05:23:28;6.47;;;2.72;;
21769;SDS011;11046;49.558;8.674;2023-07-28T05:26:28;2.78;;;2.08;;
21769;SDS011;11046;49.558;8.674;2023-07-28T05:29:29;3.58;;;2.33;;
21769;SDS011;11046;49.558;8.674;2023-07-28T05:32:35;4.22;;;2.53;;
21769;SDS011;11046;49.558;8.674;2023-07-28T05:35:42;5.45;;;2.70;;
21769;SDS011;11046;49.558;8.674;2023-07-28T05:38:42;3.75;;;2.47;;
21769;SDS011;11046;49.558;8.674;2023-07-28T05:41:43;2.92;;;2.30;;
21769;SDS011;11046;49.558;8.674;2023-07-28T05:44:46;7.43;;;2.67;;
21769;SDS011;11046;49.558;8.674;2023-07-28T05:47:46;4.15;;;2.50;;
21769;SDS011;11046;49.558;8.674;2023-07-28T05:50:47;2.67;;;2.10;;
21769;SDS011;11046;49.558;8.674;2023-07-28T05:53:49;3.50;;;2.35;;
21769;SDS011;11046;49.558;8.674;2023-07-28T05:56:52;3.05;;;2.20;;
21769;SDS011;11046;49.558;8.674;2023-07-28T05:59:52;2.97;;;2.30;;
21769;SDS011;11046;49.558;8.674;2023-07-28T06:02:53;3.33;;;2.15;;
21769;SDS011;11046;49.558;8.674;2023-07-28T06:06:12;3.35;;;2.25;;
21769;SDS011;11046;49.558;8.674;2023-07-28T06:09:13;3.63;;;2.05;;
21769;SDS011;11046;49.558;8.674;2023-07-28T06:12:15;3.42;;;1.85;;
21769;SDS011;11046;49.558;8.674;2023-07-28T06:15:16;6.18;;;2.40;;
21769;SDS011;11046;49.558;8.674;2023-07-28T06:18:17;5.03;;;2.38;;
21769;SDS011;11046;49.558;8.674;2023-07-28T06:21:21;5.55;;;2.20;;
21769;SDS011;11046;49.558;8.674;2023-07-28T06:24:22;2.60;;;2.13;;
21769;SDS011;11046;49.558;8.674;2023-07-28T06:27:22;3.45;;;2.38;;
21769;SDS011;11046;49.558;8.674;2023-07-28T06:30:23;3.15;;;2.13;;
21769;SDS011;11046;49.558;8.674;2023-07-28T06:33:24;2.30;;;2.10;;
21769;SDS011;11046;49.558;8.674;2023-07-28T06:36:25;2.38;;;1.90;;
21769;SDS011;11046;49.558;8.674;2023-07-28T06:39:27;3.63;;;2.13;;
21769;SDS011;11046;49.558;8.674;2023-07-28T06:42:30;2.70;;;2.10;;
21769;SDS011;11046;49.558;8.674;2023-07-28T06:45:30;5.75;;;2.20;;
21769;SDS011;11046;49.558;8.674;2023-07-28T06:48:31;3.20;;;2.28;;
21769;SDS011;11046;49.558;8.674;2023-07-28T06:51:31;2.97;;;2.28;;
21769;SDS011;11046;49.558;8.674;2023-07-28T06:54:32;3.85;;;2.30;;
21769;SDS011;11046;49.558;8.674;2023-07-28T06:57:33;2.63;;;2.10;;
21769;SDS011;11046;49.558;8.674;2023-07-28T07:00:35;3.70;;;2.20;;
21769;SDS011;11046;49.558;8.674;2023-07-28T07:03:36;8.65;;;2.30;;
21769;SDS011;11046;49.558;8.674;2023-07-28T07:06:37;3.95;;;2.22;;
21769;SDS011;11046;49.558;8.674;2023-07-28T07:09:37;3.60;;;2.40;;
21769;SDS011;11046;49.558;8.674;2023-07-28T07:12:38;2.65;;;2.08;;
21769;SDS011;11046;49.558;8.674;2023-07-28T07:15:39;5.93;;;3.45;;
21769;SDS011;11046;49.558;8.674;2023-07-28T07:18:40;3.47;;;2.65;;
21769;SDS011;11046;49.558;8.674;2023-07-28T07:21:41;3.05;;;2.50;;
21769;SDS011;11046;49.558;8.674;2023-07-28T07:24:42;6.68;;;2.58;;
21769;SDS011;11046;49.558;8.674;2023-07-28T07:27:42;3.97;;;2.80;;
21769;SDS011;11046;49.558;8.674;2023-07-28T07:30:43;4.57;;;3.13;;
21769;SDS011;11046;49.558;8.674;2023-07-28T07:33:43;3.55;;;2.95;;
21769;SDS011;11046;49.558;8.674;2023-07-28T07:36:45;7.95;;;3.13;;
21769;SDS011;11046;49.558;8.674;2023-07-28T07:39:45;4.72;;;3.20;;
21769;SDS011;11046;49.558;8.674;2023-07-28T07:42:47;5.80;;;2.80;;
21769;SDS011;11046;49.558;8.674;2023-07-28T07:45:48;3.40;;;2.75;;
21769;SDS011;11046;49.558;8.674;2023-07-28T07:48:51;3.15;;;2.75;;
21769;SDS011;11046;49.558;8.674;2023-07-28T07:51:52;3.95;;;2.70;;
21769;SDS011;11046;49.558;8.674;2023-07-28T07:54:52;2.78;;;2.28;;
21769;SDS011;11046;49.558;8.674;2023-07-28T07:57:53;3.42;;;2.40;;
21769;SDS011;11046;49.558;8.674;2023-07-28T08:00:53;5.15;;;2.88;;
21769;SDS011;11046;49.558;8.674;2023-07-28T08:03:55;3.65;;;2.30;;
21769;SDS011;11046;49.558;8.674;2023-07-28T08:06:55;2.78;;;2.22;;
21769;SDS011;11046;49.558;8.674;2023-07-28T08:09:56;3.65;;;2.40;;
21769;SDS011;11046;49.558;8.674;2023-07-28T08:12:56;5.38;;;2.72;;
21769;SDS011;11046;49.558;8.674;2023-07-28T08:15:57;3.15;;;2.50;;
21769;SDS011;11046;49.558;8.674;2023-07-28T08:18:58;3.53;;;2.38;;
21769;SDS011;11046;49.558;8.674;2023-07-28T08:21:59;3.38;;;2.38;;
21769;SDS011;11046;49.558;8.674;2023-07-28T08:24:59;4.18;;;2.35;;
21769;SDS011;11046;49.558;8.674;2023-07-28T08:28:00;2.22;;;2.00;;
21769;SDS011;11046;49.558;8.674;2023-07-28T08:31:01;2.60;;;2.05;;
21769;SDS011;11046;49.558;8.674;2023-07-28T08:34:01;4.05;;;2.30;;
21769;SDS011;11046;49.558;8.674;2023-07-28T08:37:03;2.10;;;1.80;;
21769;SDS011;11046;49.558;8.674;2023-07-28T08:40:03;3.67;;;2.28;;
21769;SDS011;11046;49.558;8.674;2023-07-28T08:43:05;2.65;;;2.10;;
21769;SDS011;11046;49.558;8.674;2023-07-28T08:46:05;2.97;;;2.00;;
21769;SDS011;11046;49.558;8.674;2023-07-28T08:49:06;2.20;;;1.80;;
21769;SDS011;11046;49.558;8.674;2023-07-28T08:52:07;2.83;;;2.55;;
21769;SDS011;11046;49.558;8.674;2023-07-28T08:55:07;4.75;;;1.92;;
21769;SDS011;11046;49.558;8.674;2023-07-28T08:58:20;2.42;;;2.20;;
21769;SDS011;11046;49.558;8.674;2023-07-28T09:01:22;2.95;;;2.22;;
21769;SDS011;11046;49.558;8.674;2023-07-28T09:04:23;3.58;;;2.20;;
21769;SDS011;11046;49.558;8.674;2023-07-28T09:07:24;4.00;;;2.35;;
21769;SDS011;11046;49.558;8.674;2023-07-28T09:10:25;2.88;;;2.47;;
21769;SDS011;11046;49.558;8.674;2023-07-28T09:13:25;5.20;;;2.35;;
21769;SDS011;11046;49.558;8.674;2023-07-28T09:16:34;3.00;;;2.47;;
21769;SDS011;11046;49.558;8.674;2023-07-28T09:19:52;2.58;;;2.30;;
21769;SDS011;11046;49.558;8.674;2023-07-28T09:22:54;3.03;;;2.55;;
21769;SDS011;11046;49.558;8.674;2023-07-28T09:25:58;3.10;;;2.30;;
21769;SDS011;11046;49.558;8.674;2023-07-28T09:29:03;6.00;;;3.00;;
21769;SDS011;11046;49.558;8.674;2023-07-28T09:32:26;2.72;;;2.22;;
21769;SDS011;11046;49.558;8.674;2023-07-28T09:35:28;2.92;;;2.55;;
21769;SDS011;11046;49.558;8.674;2023-07-28T09:38:29;2.70;;;2.28;;
21769;SDS011;11046;49.558;8.674;2023-07-28T09:41:31;5.57;;;2.55;;
21769;SDS011;11046;49.558;8.674;2023-07-28T09:44:32;4.82;;;2.70;;
21769;SDS011;11046;49.558;8.674;2023-07-28T09:47:34;4.15;;;2.50;;
21769;SDS011;11046;49.558;8.674;2023-07-28T09:50:36;4.18;;;2.55;;
21769;SDS011;11046;49.558;8.674;2023-07-28T09:53:40;2.88;;;2.30;;
21769;SDS011;11046;49.558;8.674;2023-07-28T09:56:55;3.60;;;2.60;;
21769;SDS011;11046;49.558;8.674;2023-07-28T09:59:57;2.40;;;2.20;;
21769;SDS011;11046;49.558;8.674;2023-07-28T10:03:00;3.25;;;2.40;;
21769;SDS011;11046;49.558;8.674;2023-07-28T10:06:02;3.03;;;2.58;;
21769;SDS011;11046;49.558;8.674;2023-07-28T10:09:04;2.95;;;2.38;;
21769;SDS011;11046;49.558;8.674;2023-07-28T10:12:06;4.35;;;2.70;;
21769;SDS011;11046;49.558;8.674;2023-07-28T10:15:12;4.88;;;2.92;;
21769;SDS011;11046;49.558;8.674;2023-07-28T10:18:19;6.32;;;2.80;;
21769;SDS011;11046;49.558;8.674;2023-07-28T10:21:20;5.18;;;2.85;;
21769;SDS011;11046;49.558;8.674;2023-07-28T10:24:21;3.53;;;2.67;;
21769;SDS011;11046;49.558;8.674;2023-07-28T10:27:58;4.45;;;2.30;;
21769;SDS011;11046;49.558;8.674;2023-07-28T10:30:59;2.53;;;1.80;;
21769;SDS011;11046;49.558;8.674;2023-07-28T10:34:00;2.90;;;1.80;;
21769;SDS011;11046;49.558;8.674;2023-07-28T10:37:00;4.20;;;2.30;;
21769;SDS011;11046;49.558;8.674;2023-07-28T10:40:36;2.10;;;1.90;;
21769;SDS011;11046;49.558;8.674;2023-07-28T10:43:31;2.13;;;1.92;;
21769;SDS011;11046;49.558;8.674;2023-07-28T10:46:34;1.98;;;1.77;;
21769;SDS011;11046;49.558;8.674;2023-07-28T10:49:37;4.13;;;2.03;;
21769;SDS011;11046;49.558;8.674;2023-07-28T10:52:44;3.22;;;2.15;;
21769;SDS011;11046;49.558;8.674;2023-07-28T10:55:45;4.15;;;1.98;;
21769;SDS011;11046;49.558;8.674;2023-07-28T10:58:46;2.60;;;2.03;;
21769;SDS011;11046;49.558;8.674;2023-07-28T11:01:47;4.32;;;2.00;;
21769;SDS011;11046;49.558;8.674;2023-07-28T11:04:47;3.85;;;2.38;;
21769;SDS011;11046;49.558;8.674;2023-07-28T11:07:48;4.68;;;2.38;;
21769;SDS011;11046;49.558;8.674;2023-07-28T11:10:50;3.25;;;2.10;;
21769;SDS011;11046;49.558;8.674;2023-07-28T11:13:51;2.85;;;2.28;;
21769;SDS011;11046;49.558;8.674;2023-07-28T11:16:52;2.05;;;1.75;;
21769;SDS011;11046;49.558;8.674;2023-07-28T11:19:53;2.63;;;1.90;;
21769;SDS011;11046;49.558;8.674;2023-07-28T11:22:56;2.50;;;2.30;;
21769;SDS011;11046;49.558;8.674;2023-07-28T11:25:58;3.28;;;2.13;;
21769;SDS011;11046;49.558;8.674;2023-07-28T11:28:58;4.15;;;2.30;;
21769;SDS011;11046;49.558;8.674;2023-07-28T11:31:59;3.10;;;2.80;;
21769;SDS011;11046;49.558;8.674;2023-07-28T11:35:04;6.93;;;2.38;;
21769;SDS011;11046;49.558;8.674;2023-07-28T11:38:05;8.00;;;2.83;;
21769;SDS011;11046;49.558;8.674;2023-07-28T11:41:07;3.72;;;2.75;;
21769;SDS011;11046;49.558;8.674;2023-07-28T11:44:09;4.60;;;2.95;;
21769;SDS011;11046;49.558;8.674;2023-07-28T11:47:10;2.90;;;2.60;;
21769;SDS011;11046;49.558;8.674;2023-07-28T11:50:24;3.00;;;2.70;;
21769;SDS011;11046;49.558;8.674;2023-07-28T11:53:26;3.13;;;2.63;;
21769;SDS011;11046;49.558;8.674;2023-07-28T11:56:27;3.72;;;2.30;;
21769;SDS011;11046;49.558;8.674;2023-07-28T11:59:29;3.15;;;2.50;;
21769;SDS011;11046;49.558;8.674;2023-07-28T12:02:31;3.40;;;2.50;;
21769;SDS011;11046;49.558;8.674;2023-07-28T12:05:33;3.10;;;2.45;;
21769;SDS011;11046;49.558;8.674;2023-07-28T12:08:34;4.30;;;2.95;;
21769;SDS011;11046;49.558;8.674;2023-07-28T12:11:36;4.30;;;2.65;;
21769;SDS011;11046;49.558;8.674;2023-07-28T12:14:37;3.92;;;2.60;;
21769;SDS011;11046;49.558;8.674;2023-07-28T12:17:38;5.10;;;2.90;;
21769;SDS011;11046;49.558;8.674;2023-07-28T12:20:40;3.45;;;2.45;;
21769;SDS011;11046;49.558;8.674;2023-07-28T12:23:49;4.15;;;2.65;;
21769;SDS011;11046;49.558;8.674;2023-07-28T12:26:50;4.55;;;2.75;;
21769;SDS011;11046;49.558;8.674;2023-07-28T12:29:51;4.72;;;2.60;;
21769;SDS011;11046;49.558;8.674;2023-07-28T12:32:51;3.33;;;2.10;;
21769;SDS011;11046;49.558;8.674;2023-07-28T12:35:52;3.55;;;2.05;;
21769;SDS011;11046;49.558;8.674;2023-07-28T12:38:53;4.25;;;2.10;;
21769;SDS011;11046;49.558;8.674;2023-07-28T12:41:54;2.47;;;2.03;;
21769;SDS011;11046;49.558;8.674;2023-07-28T12:44:54;2.53;;;2.08;;
21769;SDS011;11046;49.558;8.674;2023-07-28T12:47:55;3.97;;;1.60;;
21769;SDS011;11046;49.558;8.674;2023-07-28T12:50:56;2.63;;;1.80;;
21769;SDS011;11046;49.558;8.674;2023-07-28T12:53:56;2.40;;;1.55;;
21769;SDS011;11046;49.558;8.674;2023-07-28T12:56:57;1.40;;;1.30;;
21769;SDS011;11046;49.558;8.674;2023-07-28T12:59:57;1.50;;;1.40;;
21769;SDS011;11046;49.558;8.674;2023-07-28T13:02:58;3.67;;;1.40;;
21769;SDS011;11046;49.558;8.674;2023-07-28T13:05:58;3.20;;;1.40;;
21769;SDS011;11046;49.558;8.674;2023-07-28T13:09:00;2.53;;;1.20;;
21769;SDS011;11046;49.558;8.674;2023-07-28T13:12:00;1.55;;;1.20;;
21769;SDS011;11046;49.558;8.674;2023-07-28T13:15:01;2.65;;;1.40;;
21769;SDS011;11046;49.558;8.674;2023-07-28T13:18:02;3.40;;;1.45;;
21769;SDS011;11046;49.558;8.674;2023-07-28T13:21:02;1.70;;;1.60;;
21769;SDS011;11046;49.558;8.674;2023-07-28T13:24:03;2.92;;;1.88;;
21769;SDS011;11046;49.558;8.674;2023-07-28T13:27:04;3.15;;;1.60;;
21769;SDS011;11046;49.558;8.674;2023-07-28T13:30:06;1.88;;;1.30;;
21769;SDS011;11046;49.558;8.674;2023-07-28T13:33:07;1.60;;;1.50;;
21769;SDS011;11046;49.558;8.674;2023-07-28T13:36:07;3.13;;;1.67;;
21769;SDS011;11046;49.558;8.674;2023-07-28T13:39:08;2.10;;;1.90;;
21769;SDS011;11046;49.558;8.674;2023-07-28T13:42:09;2.10;;;1.80;;
21769;SDS011;11046;49.558;8.674;2023-07-28T13:45:12;2.38;;;2.00;;
21769;SDS011;11046;49.558;8.674;2023-07-28T13:48:12;5.53;;;1.95;;
21769;SDS011;11046;49.558;8.674;2023-07-28T13:51:13;3.78;;;2.13;;
21769;SDS011;11046;49.558;8.674;2023-07-28T13:54:13;3.85;;;2.00;;
21769;SDS011;11046;49.558;8.674;2023-07-28T13:57:14;2.83;;;1.85;;
21769;SDS011;11046;49.558;8.674;2023-07-28T14:00:15;6.00;;;2.85;;
21769;SDS011;11046;49.558;8.674;2023-07-28T14:03:15;6.32;;;2.20;;
21769;SDS011;11046;49.558;8.674;2023-07-28T14:06:16;5.15;;;2.17;;
21769;SDS011;11046;49.558;8.674;2023-07-28T14:09:17;3.35;;;2.28;;
21769;SDS011;11046;49.558;8.674;2023-07-28T14:12:17;4.38;;;2.25;;
21769;SDS011;11046;49.558;8.674;2023-07-28T14:15:18;3.97;;;2.55;;
21769;SDS011;11046;49.558;8.674;2023-07-28T14:18:19;3.65;;;2.50;;
21769;SDS011;11046;49.558;8.674;2023-07-28T14:21:19;4.03;;;2.65;;
21769;SDS011;11046;49.558;8.674;2023-07-28T14:24:20;4.70;;;2.90;;
21769;SDS011;11046;49.558;8.674;2023-07-28T14:27:20;5.85;;;2.83;;
21769;SDS011;11046;49.558;8.674;2023-07-28T14:30:21;6.35;;;3.05;;
21769;SDS011;11046;49.558;8.674;2023-07-28T14:33:22;4.63;;;3.10;;
21769;SDS011;11046;49.558;8.674;2023-07-28T14:36:22;8.63;;;3.33;;
21769;SDS011;11046;49.558;8.674;2023-07-28T14:39:23;4.75;;;3.20;;
21769;SDS011;11046;49.558;8.674;2023-07-28T14:42:23;4.13;;;3.17;;
21769;SDS011;11046;49.558;8.674;2023-07-28T14:45:24;4.85;;;3.42;;
21769;SDS011;11046;49.558;8.674;2023-07-28T14:48:24;5.88;;;3.30;;
21769;SDS011;11046;49.558;8.674;2023-07-28T14:51:25;10.13;;;3.50;;
21769;SDS011;11046;49.558;8.674;2023-07-28T14:54:26;7.68;;;3.50;;
21769;SDS011;11046;49.558;8.674;2023-07-28T14:57:26;6.80;;;3.88;;
21769;SDS011;11046;49.558;8.674;2023-07-28T15:00:27;6.75;;;3.65;;
21769;SDS011;11046;49.558;8.674;2023-07-28T15:03:28;6.03;;;3.45;;
21769;SDS011;11046;49.558;8.674;2023-07-28T15:06:30;5.82;;;3.67;;
21769;SDS011;11046;49.558;8.674;2023-07-28T15:09:32;8.40;;;3.72;;
21769;SDS011;11046;49.558;8.674;2023-07-28T15:12:33;5.70;;;3.50;;
21769;SDS011;11046;49.558;8.674;2023-07-28T15:15:33;4.45;;;3.40;;
21769;SDS011;11046;49.558;8.674;2023-07-28T15:18:34;6.95;;;3.72;;
21769;SDS011;11046;49.558;8.674;2023-07-28T15:21:34;6.65;;;3.22;;
21769;SDS011;11046;49.558;8.674;2023-07-28T15:24:35;4.82;;;3.00;;
21769;SDS011;11046;49.558;8.674;2023-07-28T15:27:36;5.43;;;3.08;;
21769;SDS011;11046;49.558;8.674;2023-07-28T15:30:43;4.18;;;3.05;;
21769;SDS011;11046;49.558;8.674;2023-07-28T15:33:46;4.20;;;3.13;;
21769;SDS011;11046;49.558;8.674;2023-07-28T15:36:48;4.40;;;3.42;;
21769;SDS011;11046;49.558;8.674;2023-07-28T15:39:48;4.10;;;2.80;;
21769;SDS011;11046;49.558;8.674;2023-07-28T15:42:49;6.32;;;3.22;;
21769;SDS011;11046;49.558;8.674;2023-07-28T15:45:50;5.20;;;3.08;;
21769;SDS011;11046;49.558;8.674;2023-07-28T15:48:54;3.72;;;2.85;;
21769;SDS011;11046;49.558;8.674;2023-07-28T15:51:54;6.65;;;2.75;;
21769;SDS011;11046;49.558;8.674;2023-07-28T15:54:55;3.40;;;2.55;;
21769;SDS011;11046;49.558;8.674;2023-07-28T15:57:56;4.10;;;2.70;;
21769;SDS011;11046;49.558;8.674;2023-07-28T16:00:56;5.78;;;2.70;;
21769;SDS011;11046;49.558;8.674;2023-07-28T16:03:57;3.85;;;2.83;;
21769;SDS011;11046;49.558;8.674;2023-07-28T16:06:58;3.42;;;2.63;;
21769;SDS011;11046;49.558;8.674;2023-07-28T16:09:59;3.58;;;2.83;;
21769;SDS011;11046;49.558;8.674;2023-07-28T16:13:00;6.38;;;3.47;;
21769;SDS011;11046;49.558;8.674;2023-07-28T16:16:01;3.50;;;2.40;;
21769;SDS011;11046;49.558;8.674;2023-07-28T16:19:02;4.43;;;2.45;;
21769;SDS011;11046;49.558;8.674;2023-07-28T16:22:02;4.10;;;2.53;;
21769;SDS011;11046;49.558;8.674;2023-07-28T16:25:04;3.38;;;2.40;;
21769;SDS011;11046;49.558;8.674;2023-07-28T16:28:05;2.75;;;2.28;;
21769;SDS011;11046;49.558;8.674;2023-07-28T16:31:05;4.75;;;2.63;;
21769;SDS011;11046;49.558;8.674;2023-07-28T16:34:07;3.85;;;2.53;;
21769;SDS011;11046;49.558;8.674;2023-07-28T16:37:08;3.88;;;2.40;;
21769;SDS011;11046;49.558;8.674;2023-07-28T16:40:09;4.63;;;2.78;;
21769;SDS011;11046;49.558;8.674;2023-07-28T16:43:10;3.00;;;2.70;;
21769;SDS011;11046;49.558;8.674;2023-07-28T16:46:11;5.85;;;3.17;;
21769;SDS011;11046;49.558;8.674;2023-07-28T16:49:12;3.17;;;2.50;;
21769;SDS011;11046;49.558;8.674;2023-07-28T16:52:12;4.68;;;3.00;;
21769;SDS011;11046;49.558;8.674;2023-07-28T16:55:13;5.45;;;3.20;;
21769;SDS011;11046;49.558;8.674;2023-07-28T16:58:14;3.58;;;2.90;;
21769;SDS011;11046;49.558;8.674;2023-07-28T17:01:16;4.75;;;2.83;;
21769;SDS011;11046;49.558;8.674;2023-07-28T17:04:16;3.55;;;2.58;;
21769;SDS011;11046;49.558;8.674;2023-07-28T17:07:18;3.33;;;2.45;;
21769;SDS011;11046;49.558;8.674;2023-07-28T17:10:18;4.22;;;3.10;;
21769;SDS011;11046;49.558;8.674;2023-07-28T17:13:19;3.78;;;2.72;;
21769;SDS011;11046;49.558;8.674;2023-07-28T17:16:21;9.52;;;3.30;;
21769;SDS011;11046;49.558;8.674;2023-07-28T17:19:22;3.45;;;2.80;;
21769;SDS011;11046;49.558;8.674;2023-07-28T17:22:22;7.60;;;3.50;;
21769;SDS011;11046;49.558;8.674;2023-07-28T17:25:23;5.72;;;3.00;;
21769;SDS011;11046;49.558;8.674;2023-07-28T17:28:24;5.00;;;2.65;;
21769;SDS011;11046;49.558;8.674;2023-07-28T17:31:24;5.13;;;2.45;;
21769;SDS011;11046;49.558;8.674;2023-07-28T17:34:25;4.10;;;2.65;;
21769;SDS011;11046;49.558;8.674;2023-07-28T17:37:26;5.22;;;3.08;;
21769;SDS011;11046;49.558;8.674;2023-07-28T17:40:26;5.43;;;3.25;;
21769;SDS011;11046;49.558;8.674;2023-07-28T17:43:27;4.43;;;3.08;;
21769;SDS011;11046;49.558;8.674;2023-07-28T17:46:28;8.50;;;2.80;;
21769;SDS011;11046;49.558;8.674;2023-07-28T17:49:28;4.70;;;3.42;;
21769;SDS011;11046;49.558;8.674;2023-07-28T17:52:29;6.30;;;3.58;;
21769;SDS011;11046;49.558;8.674;2023-07-28T17:55:30;7.25;;;3.80;;
21769;SDS011;11046;49.558;8.674;2023-07-28T17:58:30;6.55;;;3.67;;
21769;SDS011;11046;49.558;8.674;2023-07-28T18:01:31;4.95;;;3.38;;
21769;SDS011;11046;49.558;8.674;2023-07-28T18:04:32;5.68;;;4.15;;
21769;SDS011;11046;49.558;8.674;2023-07-28T18:07:32;5.32;;;3.80;;
21769;SDS011;11046;49.558;8.674;2023-07-28T18:10:33;6.53;;;4.15;;
21769;SDS011;11046;49.558;8.674;2023-07-28T18:13:34;9.43;;;7.50;;
21769;SDS011;11046;49.558;8.674;2023-07-28T18:16:34;5.00;;;3.60;;